Time;durP1;ratioP1;P1;durP2;ratioP2;P2;SDS_P1;SDS_P2;PMS_P1;PMS_P2;Temp;Humidity;BMP_temperature;BMP_pressure;BME280_temperature;BME280_humidity;BME280_pressure;Samples;Min_cycle;Max_cycle;Signal;HPM_P1;HPM_P2
2021/12/31 00:02:11;;;;;;;4.47;3.50;;;;;;;;;;5054011;28;20293;-78
2021/12/31 00:04:37;;;;;;;3.80;3.50;;;;;;;;;;5037681;28;20666;-78
2021/12/31 00:07:03;;;;;;;4.40;3.40;;;;;;;;;;5037808;28;20198;-78
2021/12/31 00:09:29;;;;;;;4.67;3.77;;;;;;;;;;5037677;28;20209;-77
2021/12/31 00:11:55;;;;;;;4.90;3.60;;;;;;;;;;5037497;28;20189;-77
2021/12/31 00:14:22;;;;;;;3.70;3.10;;;;;;;;;;5054212;28;20216;-78
2021/12/31 00:16:48;;;;;;;4.20;3.47;;;;;;;;;;5053902;28;20288;-78
2021/12/31 00:19:15;;;;;;;5.10;3.73;;;;;;;;;;5053991;28;20173;-78
2021/12/31 00:21:45;;;;;;;3.73;3.30;;;;;;;;;;5054106;28;20172;-78
2021/12/31 00:24:11;;;;;;;4.33;3.67;;;;;;;;;;5037798;28;20226;-79
2021/12/31 00:26:37;;;;;;;4.47;3.80;;;;;;;;;;5037494;28;20706;-78
2021/12/31 00:29:03;;;;;;;4.23;3.60;;;;;;;;;;5053845;28;20179;-79
2021/12/31 00:31:29;;;;;;;3.67;3.37;;;;;;;;;;5053608;28;20199;-80
2021/12/31 00:33:55;;;;;;;6.37;3.60;;;;;;;;;;5037199;28;20218;-80
2021/12/31 00:36:21;;;;;;;4.37;3.30;;;;;;;;;;5053832;28;20177;-78
2021/12/31 00:38:47;;;;;;;3.70;3.40;;;;;;;;;;5037459;28;20181;-78
2021/12/31 00:41:13;;;;;;;4.67;3.83;;;;;;;;;;5037203;28;20184;-78
2021/12/31 00:43:39;;;;;;;4.37;3.97;;;;;;;;;;5054106;28;20205;-78
2021/12/31 00:46:06;;;;;;;4.20;3.90;;;;;;;;;;5053953;28;20177;-78
2021/12/31 00:48:32;;;;;;;4.80;3.70;;;;;;;;;;5053826;28;20770;-79
2021/12/31 00:50:58;;;;;;;5.83;3.83;;;;;;;;;;5037015;28;20274;-80
2021/12/31 00:53:24;;;;;;;4.50;4.10;;;;;;;;;;5037269;28;20301;-80
2021/12/31 00:55:50;;;;;;;4.27;3.70;;;;;;;;;;5037388;28;20330;-79
2021/12/31 00:58:16;;;;;;;5.03;4.30;;;;;;;;;;5053501;28;20189;-79
2021/12/31 01:00:42;;;;;;;4.90;3.33;;;;;;;;;;5038207;28;20185;-78
2021/12/31 01:03:08;;;;;;;5.07;4.13;;;;;;;;;;5040805;28;20181;-79
2021/12/31 01:05:34;;;;;;;6.07;4.20;;;;;;;;;;5057660;28;20177;-79
2021/12/31 01:08:00;;;;;;;4.70;3.73;;;;;;;;;;5040689;28;20205;-78
2021/12/31 01:10:28;;;;;;;4.80;3.87;;;;;;;;;;5057265;28;20184;-78
2021/12/31 01:12:54;;;;;;;7.57;3.83;;;;;;;;;;5040913;28;20177;-78
2021/12/31 01:15:33;;;;;;;4.67;3.90;;;;;;;;;;5057266;28;20227;-80
2021/12/31 01:20:25;;;;;;;4.87;4.17;;;;;;;;;;5057309;28;20321;-78
2021/12/31 01:22:52;;;;;;;7.43;4.20;;;;;;;;;;5040608;28;20274;-78
2021/12/31 01:25:18;;;;;;;4.77;4.17;;;;;;;;;;5056633;28;20185;-79
2021/12/31 01:27:44;;;;;;;6.17;4.50;;;;;;;;;;5057227;28;20204;-79
2021/12/31 01:30:13;;;;;;;5.67;4.13;;;;;;;;;;5074836;28;20303;-78
2021/12/31 01:32:40;;;;;;;4.60;4.20;;;;;;;;;;5040355;28;20219;-78
2021/12/31 01:35:06;;;;;;;6.67;4.00;;;;;;;;;;5040183;28;20212;-78
2021/12/31 01:37:32;;;;;;;4.43;3.87;;;;;;;;;;5056561;28;20216;-78
2021/12/31 01:39:58;;;;;;;5.30;3.87;;;;;;;;;;5056854;28;20626;-78
2021/12/31 01:42:35;;;;;;;6.07;3.80;;;;;;;;;;5056401;28;20212;-78
2021/12/31 01:45:12;;;;;;;5.13;3.70;;;;;;;;;;5056914;28;20245;-78
2021/12/31 01:47:59;;;;;;;4.70;3.50;;;;;;;;;;5056650;28;20207;-79
2021/12/31 01:50:29;;;;;;;4.63;2.97;;;;;;;;;;5074241;28;20173;-78
2021/12/31 01:52:56;;;;;;;4.20;3.10;;;;;;;;;;5074290;28;20175;-79
2021/12/31 01:55:23;;;;;;;4.27;3.07;;;;;;;;;;5056332;28;20211;-79
2021/12/31 01:57:49;;;;;;;3.90;3.00;;;;;;;;;;5056262;28;20219;-78
2021/12/31 02:00:15;;;;;;;3.60;2.90;;;;;;;;;;5074311;28;20184;-78
2021/12/31 02:02:45;;;;;;;3.10;2.80;;;;;;;;;;5056252;28;20177;-80
2021/12/31 02:05:11;;;;;;;3.10;2.80;;;;;;;;;;5039634;28;20608;-78
2021/12/31 02:07:38;;;;;;;3.33;2.57;;;;;;;;;;5056368;28;20200;-79
2021/12/31 02:10:04;;;;;;;4.13;3.07;;;;;;;;;;5056132;28;20184;-80
2021/12/31 02:12:30;;;;;;;3.53;3.07;;;;;;;;;;5054887;28;20227;-78
2021/12/31 02:14:57;;;;;;;4.80;3.33;;;;;;;;;;5056327;28;20211;-78
2021/12/31 02:17:23;;;;;;;4.43;3.20;;;;;;;;;;5055763;28;20195;-78
2021/12/31 02:19:55;;;;;;;3.63;3.20;;;;;;;;;;5039418;28;20190;-78
2021/12/31 02:22:26;;;;;;;4.00;3.30;;;;;;;;;;5039419;28;20183;-77
2021/12/31 02:24:54;;;;;;;4.70;3.80;;;;;;;;;;5039884;28;20219;-79
2021/12/31 02:27:20;;;;;;;4.50;3.53;;;;;;;;;;5055751;28;20196;-78
2021/12/31 02:29:46;;;;;;;5.37;3.63;;;;;;;;;;5039272;28;20192;-78
2021/12/31 02:32:12;;;;;;;5.33;3.27;;;;;;;;;;5055688;28;20197;-79
2021/12/31 02:34:38;;;;;;;5.00;3.33;;;;;;;;;;5039347;28;20237;-79
2021/12/31 02:37:04;;;;;;;4.97;3.17;;;;;;;;;;5055529;28;20204;-79
2021/12/31 02:39:30;;;;;;;4.67;3.20;;;;;;;;;;5039082;28;20192;-79
2021/12/31 02:41:56;;;;;;;4.73;3.60;;;;;;;;;;5039117;28;20173;-79
2021/12/31 02:44:22;;;;;;;4.53;3.27;;;;;;;;;;5055472;28;20177;-79
2021/12/31 02:46:48;;;;;;;4.53;3.30;;;;;;;;;;5038845;28;20205;-78
2021/12/31 02:49:18;;;;;;;3.97;3.33;;;;;;;;;;5039247;28;20177;-79
2021/12/31 02:51:44;;;;;;;5.30;3.13;;;;;;;;;;5055416;28;20169;-79
2021/12/31 02:54:11;;;;;;;3.67;3.30;;;;;;;;;;5038723;28;20209;-80
2021/12/31 02:56:37;;;;;;;4.80;3.10;;;;;;;;;;5073146;28;20221;-78
2021/12/31 02:59:03;;;;;;;4.77;3.10;;;;;;;;;;5055377;28;20262;-78
2021/12/31 03:01:29;;;;;;;3.93;3.23;;;;;;;;;;5038389;28;20273;-78
2021/12/31 03:03:55;;;;;;;5.47;3.40;;;;;;;;;;5055376;28;20259;-79
2021/12/31 03:06:22;;;;;;;5.83;3.60;;;;;;;;;;5038447;28;20186;-78
2021/12/31 03:08:48;;;;;;;4.03;3.63;;;;;;;;;;5055359;28;20192;-78
2021/12/31 03:11:18;;;;;;;5.03;3.40;;;;;;;;;;5054794;28;20563;-78
2021/12/31 03:13:45;;;;;;;5.60;4.33;;;;;;;;;;5072754;28;20216;-78
2021/12/31 03:16:11;;;;;;;7.00;3.93;;;;;;;;;;5038255;28;20552;-79
2021/12/31 03:18:37;;;;;;;4.77;3.63;;;;;;;;;;5054721;28;20587;-79
2021/12/31 03:21:12;;;;;;;6.37;3.93;;;;;;;;;;5054492;28;20176;-79
2021/12/31 03:23:38;;;;;;;7.70;4.10;;;;;;;;;;5072193;28;20179;-78
2021/12/31 03:26:04;;;;;;;4.53;3.80;;;;;;;;;;5054729;28;20181;-79
2021/12/31 03:28:30;;;;;;;4.87;3.57;;;;;;;;;;5038048;28;20571;-78
2021/12/31 03:30:56;;;;;;;4.43;3.83;;;;;;;;;;5054408;28;20346;-77
2021/12/31 03:33:24;;;;;;;5.17;3.90;;;;;;;;;;5054385;28;20235;-77
2021/12/31 03:35:50;;;;;;;5.13;3.60;;;;;;;;;;5054517;28;20176;-78
2021/12/31 03:38:16;;;;;;;6.77;4.03;;;;;;;;;;5054371;28;20591;-78
2021/12/31 03:40:42;;;;;;;5.77;4.10;;;;;;;;;;5054410;28;20177;-78
2021/12/31 03:43:08;;;;;;;5.60;4.23;;;;;;;;;;5054616;28;20176;-78
2021/12/31 03:45:35;;;;;;;6.77;4.03;;;;;;;;;;5038075;28;20272;-77
2021/12/31 03:48:01;;;;;;;7.13;4.20;;;;;;;;;;5054466;28;20212;-78
2021/12/31 03:50:27;;;;;;;6.23;4.47;;;;;;;;;;5037653;28;20173;-78
2021/12/31 03:52:53;;;;;;;6.47;4.07;;;;;;;;;;5037948;28;20216;-78
2021/12/31 03:55:19;;;;;;;6.20;4.03;;;;;;;;;;5054173;28;20228;-78
2021/12/31 03:57:45;;;;;;;6.67;4.13;;;;;;;;;;5037609;28;20201;-77
2021/12/31 04:00:11;;;;;;;5.13;4.10;;;;;;;;;;5054356;28;20173;-78
2021/12/31 04:02:37;;;;;;;6.87;4.70;;;;;;;;;;5054200;28;20251;-78
2021/12/31 04:05:04;;;;;;;4.43;3.67;;;;;;;;;;5054314;28;20181;-77
2021/12/31 04:07:30;;;;;;;4.27;3.50;;;;;;;;;;5054242;28;20201;-77
2021/12/31 04:09:56;;;;;;;4.17;3.30;;;;;;;;;;5054106;28;20173;-78
2021/12/31 04:12:23;;;;;;;5.43;3.50;;;;;;;;;;5037271;28;20199;-78
2021/12/31 04:14:49;;;;;;;5.67;3.33;;;;;;;;;;5053992;28;20203;-78
2021/12/31 04:17:15;;;;;;;3.23;2.90;;;;;;;;;;5037648;28;20197;-78
2021/12/31 04:19:42;;;;;;;5.03;3.40;;;;;;;;;;5037658;28;20181;-78
2021/12/31 04:22:11;;;;;;;6.40;3.73;;;;;;;;;;5037539;28;20242;-78
2021/12/31 04:27:09;;;;;;;6.43;3.73;;;;;;;;;;5072072;28;20287;-78
2021/12/31 04:29:36;;;;;;;5.37;3.13;;;;;;;;;;5054155;28;20176;-78
2021/12/31 04:32:02;;;;;;;5.50;3.43;;;;;;;;;;5071689;28;20254;-78
2021/12/31 04:34:28;;;;;;;5.10;3.27;;;;;;;;;;5037332;28;20200;-77
2021/12/31 04:36:54;;;;;;;4.03;3.13;;;;;;;;;;5040572;28;20220;-77
2021/12/31 04:39:20;;;;;;;5.30;3.10;;;;;;;;;;5041157;28;20556;-78
2021/12/31 04:41:47;;;;;;;4.30;3.27;;;;;;;;;;5057652;28;20212;-78
2021/12/31 04:44:13;;;;;;;6.57;4.13;;;;;;;;;;5057986;28;20184;-78
2021/12/31 04:46:39;;;;;;;6.67;3.90;;;;;;;;;;5057591;28;20189;-77
2021/12/31 04:49:08;;;;;;;6.20;3.37;;;;;;;;;;5057755;28;20196;-80
2021/12/31 04:51:34;;;;;;;5.43;3.23;;;;;;;;;;5057311;28;20220;-77
2021/12/31 04:54:00;;;;;;;5.23;3.47;;;;;;;;;;5040876;28;20204;-77
2021/12/31 04:56:27;;;;;;;4.73;3.33;;;;;;;;;;5075569;28;20248;-78
2021/12/31 04:58:53;;;;;;;5.57;3.37;;;;;;;;;;5057471;28;20173;-77
2021/12/31 05:01:21;;;;;;;3.90;3.30;;;;;;;;;;5040870;28;20179;-77
2021/12/31 05:03:48;;;;;;;3.53;3.00;;;;;;;;;;5041220;28;20177;-80
2021/12/31 05:06:15;;;;;;;4.33;3.17;;;;;;;;;;5040716;28;20177;-79
2021/12/31 05:08:41;;;;;;;5.07;3.60;;;;;;;;;;5041191;28;20181;-78
2021/12/31 05:11:07;;;;;;;3.77;3.10;;;;;;;;;;5040772;28;20181;-78
2021/12/31 05:13:33;;;;;;;4.30;3.60;;;;;;;;;;5057362;28;20204;-77
2021/12/31 05:16:03;;;;;;;6.07;2.93;;;;;;;;;;5057126;28;20169;-78
2021/12/31 05:18:29;;;;;;;7.83;3.47;;;;;;;;;;5057001;28;20679;-78
2021/12/31 05:20:55;;;;;;;3.83;2.87;;;;;;;;;;5056870;28;20172;-78
2021/12/31 05:23:21;;;;;;;4.93;3.20;;;;;;;;;;5040740;28;20180;-78
2021/12/31 05:25:47;;;;;;;5.13;2.83;;;;;;;;;;5057170;28;20172;-78
2021/12/31 05:28:13;;;;;;;6.20;2.90;;;;;;;;;;5040876;28;20203;-78
2021/12/31 05:30:39;;;;;;;4.20;2.93;;;;;;;;;;5040264;28;20177;-83
2021/12/31 05:33:05;;;;;;;7.73;3.00;;;;;;;;;;5057327;28;20176;-80
2021/12/31 05:35:31;;;;;;;6.97;3.17;;;;;;;;;;5057211;28;20678;-80
2021/12/31 05:37:57;;;;;;;5.13;3.27;;;;;;;;;;5075607;28;20244;-80
2021/12/31 05:40:24;;;;;;;7.67;2.90;;;;;;;;;;5040324;28;20543;-81
2021/12/31 05:42:50;;;;;;;5.13;3.23;;;;;;;;;;5057064;28;20251;-81
2021/12/31 05:45:16;;;;;;;5.73;3.10;;;;;;;;;;5040565;28;20196;-80
2021/12/31 05:47:42;;;;;;;6.27;3.37;;;;;;;;;;5040268;28;20208;-80
2021/12/31 05:50:18;;;;;;;4.60;3.10;;;;;;;;;;5056961;28;20177;-80
2021/12/31 05:52:45;;;;;;;4.53;3.27;;;;;;;;;;5056964;28;20187;-81
2021/12/31 05:55:11;;;;;;;5.67;3.20;;;;;;;;;;5040251;28;20211;-81
2021/12/31 05:57:37;;;;;;;4.57;3.03;;;;;;;;;;5040218;28;20197;-81
2021/12/31 06:00:03;;;;;;;3.43;3.03;;;;;;;;;;5040518;28;20597;-80
2021/12/31 06:02:29;;;;;;;3.87;3.13;;;;;;;;;;5056680;28;20173;-81
2021/12/31 06:04:55;;;;;;;5.13;3.10;;;;;;;;;;5040445;28;20191;-80
2021/12/31 06:07:21;;;;;;;4.10;3.10;;;;;;;;;;5056913;28;20207;-80
2021/12/31 06:09:47;;;;;;;5.17;3.37;;;;;;;;;;5040469;28;20219;-81
2021/12/31 06:12:13;;;;;;;6.60;3.40;;;;;;;;;;5039845;28;20627;-80
2021/12/31 06:14:39;;;;;;;5.47;3.27;;;;;;;;;;5040232;28;20209;-80
2021/12/31 06:17:07;;;;;;;5.23;3.00;;;;;;;;;;5056480;28;20562;-81
2021/12/31 06:19:34;;;;;;;5.17;3.20;;;;;;;;;;5056154;28;20229;-81
2021/12/31 06:22:00;;;;;;;5.67;3.20;;;;;;;;;;5056158;28;20240;-80
2021/12/31 06:24:26;;;;;;;7.40;3.70;;;;;;;;;;5039769;28;20181;-81
2021/12/31 06:26:52;;;;;;;3.97;3.00;;;;;;;;;;5056416;28;20197;-80
2021/12/31 06:29:18;;;;;;;5.10;3.30;;;;;;;;;;5040047;28;20174;-80
2021/12/31 06:31:44;;;;;;;4.93;3.10;;;;;;;;;;5055925;28;20177;-81
2021/12/31 06:34:10;;;;;;;4.37;2.97;;;;;;;;;;5056039;28;20211;-80
2021/12/31 06:36:36;;;;;;;4.93;3.30;;;;;;;;;;5056144;28;20209;-81
2021/12/31 06:39:03;;;;;;;7.67;3.50;;;;;;;;;;5039663;28;20177;-81
2021/12/31 06:41:29;;;;;;;4.50;3.03;;;;;;;;;;5039766;28;20181;-82
2021/12/31 06:43:55;;;;;;;5.40;2.77;;;;;;;;;;5055949;28;20230;-81
2021/12/31 06:46:21;;;;;;;4.00;3.40;;;;;;;;;;5039340;28;20196;-81
2021/12/31 06:48:47;;;;;;;5.63;2.97;;;;;;;;;;5055725;28;20169;-81
2021/12/31 06:51:14;;;;;;;4.43;2.87;;;;;;;;;;5055603;28;20204;-81
2021/12/31 06:53:40;;;;;;;6.60;3.10;;;;;;;;;;5073415;28;20243;-81
2021/12/31 06:56:06;;;;;;;4.77;3.20;;;;;;;;;;5039027;28;20181;-80
2021/12/31 06:58:33;;;;;;;6.43;3.03;;;;;;;;;;5072440;28;20189;-82
2021/12/31 07:00:59;;;;;;;3.17;2.70;;;;;;;;;;5055174;28;20184;-80
2021/12/31 07:03:25;;;;;;;4.93;2.93;;;;;;;;;;5055790;28;20170;-81
2021/12/31 07:05:51;;;;;;;5.27;2.77;;;;;;;;;;5055486;28;20166;-81
2021/12/31 07:08:17;;;;;;;5.90;3.47;;;;;;;;;;5055559;28;20547;-80
2021/12/31 07:10:43;;;;;;;4.07;2.90;;;;;;;;;;5038821;28;20181;-81
2021/12/31 07:13:12;;;;;;;3.30;2.40;;;;;;;;;;5038938;28;20189;-80
2021/12/31 07:15:44;;;;;;;4.53;2.50;;;;;;;;;;5073175;28;20197;-79
2021/12/31 07:18:10;;;;;;;4.53;2.70;;;;;;;;;;5038833;28;20197;-80
2021/12/31 07:20:36;;;;;;;4.80;2.53;;;;;;;;;;5054614;28;20182;-81
2021/12/31 07:23:03;;;;;;;3.57;2.40;;;;;;;;;;5038601;28;20316;-80
2021/12/31 07:25:29;;;;;;;5.30;3.10;;;;;;;;;;5072703;28;20182;-79
2021/12/31 07:27:55;;;;;;;4.23;2.63;;;;;;;;;;5038586;28;20201;-81
2021/12/31 07:30:21;;;;;;;3.70;2.50;;;;;;;;;;5038391;28;20188;-79
2021/12/31 07:32:47;;;;;;;3.50;2.50;;;;;;;;;;5038716;28;20242;-79
2021/12/31 07:35:13;;;;;;;4.53;2.70;;;;;;;;;;5038652;28;20217;-78
2021/12/31 07:37:39;;;;;;;4.70;3.07;;;;;;;;;;5054244;28;20244;-79
2021/12/31 07:40:07;;;;;;;5.43;3.03;;;;;;;;;;5038459;28;20208;-79
2021/12/31 07:42:33;;;;;;;4.07;2.60;;;;;;;;;;5037925;28;20245;-82
2021/12/31 07:44:59;;;;;;;5.30;2.97;;;;;;;;;;5054663;28;20180;-81
2021/12/31 07:47:25;;;;;;;7.67;3.03;;;;;;;;;;5038273;28;20197;-81
2021/12/31 07:49:51;;;;;;;5.50;3.00;;;;;;;;;;5054274;28;20591;-82
2021/12/31 07:52:17;;;;;;;5.83;3.27;;;;;;;;;;5054556;28;20173;-83
2021/12/31 07:54:43;;;;;;;5.03;3.00;;;;;;;;;;5037992;28;20209;-81
2021/12/31 07:57:09;;;;;;;4.93;3.10;;;;;;;;;;5038434;28;20250;-80
2021/12/31 07:59:35;;;;;;;5.33;3.33;;;;;;;;;;5038637;28;20184;-82
2021/12/31 08:02:01;;;;;;;4.13;2.97;;;;;;;;;;5038652;28;20263;-79
2021/12/31 08:04:27;;;;;;;5.13;3.00;;;;;;;;;;5039068;28;20246;-81
2021/12/31 08:06:53;;;;;;;4.13;2.87;;;;;;;;;;5038295;28;20212;-80
2021/12/31 08:09:19;;;;;;;6.93;3.13;;;;;;;;;;5054979;28;20553;-80
2021/12/31 08:11:45;;;;;;;5.07;2.97;;;;;;;;;;5054318;28;20191;-79
2021/12/31 08:14:11;;;;;;;5.20;3.37;;;;;;;;;;5055300;28;20306;-80
2021/12/31 08:16:37;;;;;;;3.87;3.30;;;;;;;;;;5055411;28;20196;-80
2021/12/31 08:19:03;;;;;;;3.50;2.70;;;;;;;;;;5055557;28;20168;-80
2021/12/31 08:21:29;;;;;;;5.43;3.20;;;;;;;;;;5055253;28;20198;-80
2021/12/31 08:23:55;;;;;;;3.40;2.80;;;;;;;;;;5039021;28;20234;-80
2021/12/31 08:26:21;;;;;;;3.43;2.93;;;;;;;;;;5073417;28;20173;-80
2021/12/31 08:28:47;;;;;;;5.57;2.90;;;;;;;;;;5056218;28;20222;-80
2021/12/31 08:31:13;;;;;;;4.77;2.87;;;;;;;;;;5034946;28;20561;-80
2021/12/31 08:33:40;;;;;;;4.10;2.73;;;;;;;;;;5055704;28;20200;-80
2021/12/31 08:36:07;;;;;;;6.70;2.63;;;;;;;;;;5071555;28;20256;-80
2021/12/31 08:38:33;;;;;;;6.47;3.20;;;;;;;;;;5071535;28;20194;-80
2021/12/31 08:41:01;;;;;;;5.03;3.10;;;;;;;;;;5054466;28;20632;-79
2021/12/31 08:43:27;;;;;;;4.20;2.60;;;;;;;;;;5055302;28;20181;-81
2021/12/31 08:45:53;;;;;;;2.90;2.60;;;;;;;;;;5054659;28;20323;-79
2021/12/31 08:48:19;;;;;;;4.20;3.03;;;;;;;;;;5071153;28;20679;-79
2021/12/31 08:50:45;;;;;;;3.83;2.70;;;;;;;;;;5054713;28;20177;-80
2021/12/31 08:53:12;;;;;;;5.17;2.70;;;;;;;;;;5054811;28;20177;-80
2021/12/31 08:55:38;;;;;;;5.10;2.67;;;;;;;;;;5071386;28;20255;-79
2021/12/31 08:58:05;;;;;;;4.23;2.80;;;;;;;;;;5071426;28;20200;-81
2021/12/31 09:00:31;;;;;;;5.80;2.70;;;;;;;;;;5071617;28;20650;-80
2021/12/31 09:02:57;;;;;;;2.60;2.40;;;;;;;;;;5055108;28;20594;-80
2021/12/31 09:05:23;;;;;;;3.17;2.47;;;;;;;;;;5055125;28;20227;-79
2021/12/31 09:07:50;;;;;;;4.13;2.37;;;;;;;;;;5054621;28;20224;-80
2021/12/31 09:10:16;;;;;;;4.50;2.40;;;;;;;;;;5071485;28;20627;-82
2021/12/31 09:12:44;;;;;;;4.30;2.60;;;;;;;;;;5054732;28;20185;-80
2021/12/31 09:15:10;;;;;;;2.90;2.57;;;;;;;;;;5055005;28;20231;-80
2021/12/31 09:17:36;;;;;;;4.07;2.50;;;;;;;;;;5071356;28;20728;-79
2021/12/31 09:20:03;;;;;;;4.13;2.30;;;;;;;;;;5071704;28;20185;-79
2021/12/31 09:22:29;;;;;;;4.80;2.50;;;;;;;;;;5073673;28;20180;-79
2021/12/31 09:24:58;;;;;;;4.60;2.17;;;;;;;;;;5075087;28;20185;-80
2021/12/31 09:27:24;;;;;;;3.73;2.77;;;;;;;;;;5075042;28;20197;-80
2021/12/31 09:29:50;;;;;;;3.50;2.60;;;;;;;;;;5058670;28;20253;-80
2021/12/31 09:32:16;;;;;;;4.47;2.40;;;;;;;;;;5058340;28;20185;-79
2021/12/31 09:34:46;;;;;;;5.47;2.40;;;;;;;;;;5059092;28;20235;-79
2021/12/31 09:37:12;;;;;;;3.83;2.27;;;;;;;;;;5059288;28;20212;-79
2021/12/31 09:39:39;;;;;;;3.20;2.40;;;;;;;;;;5074296;28;20169;-79
2021/12/31 09:42:05;;;;;;;2.93;1.97;;;;;;;;;;5074049;28;20271;-79
2021/12/31 09:44:33;;;;;;;3.57;2.40;;;;;;;;;;5075147;28;20214;-82
2021/12/31 09:46:59;;;;;;;3.20;2.10;;;;;;;;;;5075323;28;20565;-79
2021/12/31 09:49:25;;;;;;;2.27;2.00;;;;;;;;;;5075001;28;20269;-79
2021/12/31 09:51:51;;;;;;;2.63;2.13;;;;;;;;;;5058263;28;20209;-79
2021/12/31 09:54:22;;;;;;;2.93;2.00;;;;;;;;;;5075123;28;20209;-79
2021/12/31 09:56:48;;;;;;;2.87;2.07;;;;;;;;;;5059158;28;20601;-79
2021/12/31 09:59:14;;;;;;;3.00;2.10;;;;;;;;;;5075034;28;20169;-81
2021/12/31 10:01:45;;;;;;;4.13;2.20;;;;;;;;;;5058234;28;20180;-80
2021/12/31 10:04:10;;;;;;;3.63;2.00;;;;;;;;;;5074700;28;20238;-79
2021/12/31 10:06:36;;;;;;;2.97;2.10;;;;;;;;;;5074880;28;20205;-79
2021/12/31 10:09:03;;;;;;;4.80;2.00;;;;;;;;;;5058357;28;20195;-80
2021/12/31 10:11:29;;;;;;;2.20;1.80;;;;;;;;;;5074452;28;20231;-79
2021/12/31 10:13:55;;;;;;;2.47;1.90;;;;;;;;;;5074628;28;20623;-79
2021/12/31 10:16:22;;;;;;;4.43;2.03;;;;;;;;;;5074657;28;20169;-80
2021/12/31 10:18:49;;;;;;;2.77;2.07;;;;;;;;;;5074502;28;20616;-80
2021/12/31 10:21:19;;;;;;;3.33;1.93;;;;;;;;;;5074386;28;20203;-79
2021/12/31 10:23:46;;;;;;;2.40;2.17;;;;;;;;;;5074346;28;20173;-79
2021/12/31 10:26:13;;;;;;;3.67;2.50;;;;;;;;;;5057901;28;20189;-80
2021/12/31 10:28:56;;;;;;;3.67;1.97;;;;;;;;;;5074474;28;20181;-80
2021/12/31 10:31:22;;;;;;;3.73;2.07;;;;;;;;;;5073796;28;20553;-79
2021/12/31 10:33:49;;;;;;;2.93;1.80;;;;;;;;;;5056943;28;20212;-79
2021/12/31 10:36:32;;;;;;;3.17;2.07;;;;;;;;;;5074123;28;20179;-81
2021/12/31 10:38:59;;;;;;;6.00;3.90;;;;;;;;;;5073961;28;20230;-79
2021/12/31 10:41:25;;;;;;;3.57;2.73;;;;;;;;;;5057857;28;20655;-80
2021/12/31 10:43:59;;;;;;;2.80;2.20;;;;;;;;;;5058030;28;20177;-81
2021/12/31 10:46:25;;;;;;;5.03;3.43;;;;;;;;;;5074459;28;20240;-79
2021/12/31 10:48:54;;;;;;;4.00;2.67;;;;;;;;;;5074625;28;20179;-80
2021/12/31 10:51:40;;;;;;;3.97;2.80;;;;;;;;;;5073457;28;20268;-79
2021/12/31 10:54:16;;;;;;;5.40;3.10;;;;;;;;;;5073897;28;20209;-79
2021/12/31 10:56:47;;;;;;;2.83;1.90;;;;;;;;;;5074140;28;20196;-80
2021/12/31 10:59:13;;;;;;;2.13;1.93;;;;;;;;;;5073644;28;20162;-79
2021/12/31 11:01:40;;;;;;;2.53;1.60;;;;;;;;;;5073278;28;20177;-79
2021/12/31 11:04:09;;;;;;;2.87;1.90;;;;;;;;;;5074743;28;20177;-77
2021/12/31 11:06:35;;;;;;;2.50;1.70;;;;;;;;;;5056087;28;20197;-77
2021/12/31 11:09:05;;;;;;;2.53;2.10;;;;;;;;;;5073229;28;20650;-79
2021/12/31 11:11:31;;;;;;;2.33;1.80;;;;;;;;;;5073971;28;20169;-78
2021/12/31 11:13:59;;;;;;;4.53;2.57;;;;;;;;;;5074500;28;20201;-79
2021/12/31 11:16:25;;;;;;;5.87;2.80;;;;;;;;;;5074376;28;20181;-79
2021/12/31 11:18:52;;;;;;;6.17;4.30;;;;;;;;;;5058951;28;20520;-79
2021/12/31 11:21:18;;;;;;;2.53;1.90;;;;;;;;;;5058108;28;20267;-79
2021/12/31 11:23:45;;;;;;;2.17;1.60;;;;;;;;;;5075010;28;20200;-80
2021/12/31 11:26:13;;;;;;;2.13;1.57;;;;;;;;;;5059067;28;20181;-79
2021/12/31 11:28:40;;;;;;;2.23;1.60;;;;;;;;;;5056835;28;20199;-78
2021/12/31 11:31:18;;;;;;;2.23;1.50;;;;;;;;;;5056136;28;20327;-79
2021/12/31 11:33:46;;;;;;;2.50;1.67;;;;;;;;;;5072680;28;20647;-80
2021/12/31 11:36:12;;;;;;;2.37;1.40;;;;;;;;;;5055711;28;20177;-81
2021/12/31 11:38:42;;;;;;;2.83;1.40;;;;;;;;;;5121763;22;20216;-81
2021/12/31 11:41:11;;;;;;;2.37;1.60;;;;;;;;;;5075633;28;20259;-82
2021/12/31 11:43:38;;;;;;;8.30;3.70;;;;;;;;;;5075671;28;20656;-83
2021/12/31 11:46:11;;;;;;;1.90;1.50;;;;;;;;;;5075074;28;20269;-82
2021/12/31 11:48:49;;;;;;;5.83;2.77;;;;;;;;;;5072337;28;20195;-82
2021/12/31 11:51:21;;;;;;;2.63;1.70;;;;;;;;;;5055057;28;20547;-82
2021/12/31 11:53:56;;;;;;;2.87;1.80;;;;;;;;;;5054862;28;20545;-82
2021/12/31 11:56:34;;;;;;;2.57;1.77;;;;;;;;;;5055199;28;20218;-82
2021/12/31 11:59:10;;;;;;;2.27;1.70;;;;;;;;;;5056163;28;20169;-82
2021/12/31 12:01:40;;;;;;;3.67;1.67;;;;;;;;;;5055784;28;20729;-82
2021/12/31 12:04:19;;;;;;;2.20;1.53;;;;;;;;;;5055964;28;20294;-82
2021/12/31 12:06:58;;;;;;;1.90;1.77;;;;;;;;;;5055162;28;20184;-82
2021/12/31 12:09:36;;;;;;;1.97;1.60;;;;;;;;;;5055679;28;20188;-82
2021/12/31 12:12:15;;;;;;;2.13;1.57;;;;;;;;;;5055169;28;20267;-82
2021/12/31 12:14:42;;;;;;;4.67;1.73;;;;;;;;;;5055573;28;20197;-82
2021/12/31 12:17:13;;;;;;;2.73;1.70;;;;;;;;;;5055785;28;20200;-82
2021/12/31 12:19:49;;;;;;;1.93;1.63;;;;;;;;;;5055713;28;20184;-82
2021/12/31 12:22:32;;;;;;;2.23;1.47;;;;;;;;;;5055395;28;20172;-82
2021/12/31 12:25:06;;;;;;;2.07;1.60;;;;;;;;;;5055268;28;20690;-82
2021/12/31 12:27:32;;;;;;;1.60;1.40;;;;;;;;;;5055086;28;20688;-82
2021/12/31 12:30:00;;;;;;;2.40;1.70;;;;;;;;;;5055131;28;20184;-82
2021/12/31 12:32:52;;;;;;;2.77;1.67;;;;;;;;;;5054802;28;20185;-81
2021/12/31 12:35:21;;;;;;;2.33;1.70;;;;;;;;;;5054342;28;20192;-81
2021/12/31 12:38:04;;;;;;;3.87;1.67;;;;;;;;;;5054998;28;20215;-81
2021/12/31 12:40:48;;;;;;;2.43;1.60;;;;;;;;;;5054303;28;20236;-81
2021/12/31 12:43:18;;;;;;;3.23;1.50;;;;;;;;;;5054528;28;20233;-81
2021/12/31 12:45:49;;;;;;;2.20;1.70;;;;;;;;;;5072051;28;20556;-81
2021/12/31 12:48:16;;;;;;;2.10;1.70;;;;;;;;;;5054283;28;20205;-81
2021/12/31 12:50:49;;;;;;;2.07;1.60;;;;;;;;;;5053904;28;20199;-81
2021/12/31 12:53:19;;;;;;;3.23;1.83;;;;;;;;;;5053850;28;20334;-81
2021/12/31 12:55:46;;;;;;;1.93;1.67;;;;;;;;;;5054010;28;20593;-82
2021/12/31 12:58:20;;;;;;;2.13;1.50;;;;;;;;;;5057384;28;20200;-82
2021/12/31 13:00:46;;;;;;;2.33;1.60;;;;;;;;;;5057738;28;20169;-83
2021/12/31 13:03:12;;;;;;;2.20;1.70;;;;;;;;;;5058035;28;20173;-83
2021/12/31 13:05:39;;;;;;;2.27;1.60;;;;;;;;;;5057891;28;20180;-83
2021/12/31 13:08:06;;;;;;;2.13;1.50;;;;;;;;;;5057877;28;20219;-83
2021/12/31 13:10:33;;;;;;;1.70;1.40;;;;;;;;;;5057602;28;20181;-80
2021/12/31 13:13:03;;;;;;;1.80;1.50;;;;;;;;;;5076180;28;20273;-82
2021/12/31 13:15:30;;;;;;;1.80;1.60;;;;;;;;;;5057884;28;20266;-82
2021/12/31 13:18:04;;;;;;;2.57;1.50;;;;;;;;;;5057898;28;20227;-81
2021/12/31 13:20:31;;;;;;;2.20;1.40;;;;;;;;;;5058141;28;20183;-81
2021/12/31 13:22:58;;;;;;;2.17;1.57;;;;;;;;;;5058804;28;20173;-81
2021/12/31 13:25:46;;;;;;;2.27;1.50;;;;;;;;;;5058089;28;20173;-81
2021/12/31 13:28:16;;;;;;;2.17;1.70;;;;;;;;;;5058174;28;20551;-81
2021/12/31 13:31:00;;;;;;;2.57;1.47;;;;;;;;;;5057454;28;20188;-81
2021/12/31 13:33:32;;;;;;;1.50;1.40;;;;;;;;;;5057901;28;20273;-81
2021/12/31 13:36:08;;;;;;;2.17;1.67;;;;;;;;;;5057873;28;20176;-81
2021/12/31 13:38:53;;;;;;;1.97;1.50;;;;;;;;;;5057620;28;20219;-81
2021/12/31 13:41:23;;;;;;;2.23;1.50;;;;;;;;;;5075141;28;20581;-81
2021/12/31 13:43:56;;;;;;;2.13;1.40;;;;;;;;;;5057505;28;20181;-81
2021/12/31 13:46:28;;;;;;;2.73;1.50;;;;;;;;;;5057676;28;20180;-81
2021/12/31 13:49:11;;;;;;;3.67;1.50;;;;;;;;;;5057614;28;20192;-81
2021/12/31 13:51:37;;;;;;;2.03;1.47;;;;;;;;;;5057575;28;20199;-81
2021/12/31 13:54:05;;;;;;;2.23;1.40;;;;;;;;;;5057338;28;20608;-81
2021/12/31 13:56:44;;;;;;;1.60;1.20;;;;;;;;;;5075150;28;20169;-81
2021/12/31 13:59:29;;;;;;;1.50;1.20;;;;;;;;;;5057714;28;20173;-81
2021/12/31 14:02:17;;;;;;;1.67;1.23;;;;;;;;;;5057039;28;20208;-81
2021/12/31 14:04:58;;;;;;;1.30;1.20;;;;;;;;;;5057083;28;20173;-81
2021/12/31 14:07:30;;;;;;;2.27;1.47;;;;;;;;;;5056821;28;20201;-81
2021/12/31 14:10:00;;;;;;;1.63;1.40;;;;;;;;;;5056956;28;20180;-81
2021/12/31 14:12:27;;;;;;;1.63;1.27;;;;;;;;;;5056864;28;20188;-81
2021/12/31 14:14:53;;;;;;;2.83;1.30;;;;;;;;;;5074730;28;20682;-81
2021/12/31 14:17:21;;;;;;;1.50;1.20;;;;;;;;;;5056867;28;20208;-81
2021/12/31 14:19:47;;;;;;;1.93;1.50;;;;;;;;;;5056682;28;20275;-81
2021/12/31 14:22:13;;;;;;;2.20;1.47;;;;;;;;;;5056498;28;20212;-81
2021/12/31 14:24:39;;;;;;;1.60;1.50;;;;;;;;;;5056606;28;20184;-81
2021/12/31 14:27:09;;;;;;;1.60;1.37;;;;;;;;;;5056642;28;20284;-81
2021/12/31 14:29:35;;;;;;;1.90;1.20;;;;;;;;;;5057216;28;20177;-81
2021/12/31 14:32:02;;;;;;;2.03;1.50;;;;;;;;;;5056484;28;20187;-81
2021/12/31 14:34:29;;;;;;;3.03;1.47;;;;;;;;;;5056886;28;20193;-81
2021/12/31 14:37:02;;;;;;;3.20;1.33;;;;;;;;;;5056819;28;20193;-81
2021/12/31 14:39:28;;;;;;;3.07;1.80;;;;;;;;;;5056621;28;20179;-81
2021/12/31 14:41:55;;;;;;;2.20;1.37;;;;;;;;;;5074530;28;20546;-81
2021/12/31 14:44:22;;;;;;;2.07;1.40;;;;;;;;;;5056402;28;20205;-81
2021/12/31 14:46:49;;;;;;;1.77;1.50;;;;;;;;;;5056136;28;20173;-81
2021/12/31 14:49:15;;;;;;;3.40;1.30;;;;;;;;;;5056573;28;20188;-81
2021/12/31 14:51:41;;;;;;;2.60;1.37;;;;;;;;;;5056074;28;20185;-81
2021/12/31 14:54:10;;;;;;;1.60;1.40;;;;;;;;;;5056251;28;20197;-81